Time;durP1;ratioP1;P1;durP2;ratioP2;P2;SDS_P1;SDS_P2;PMS_P1;PMS_P2;Temp;Humidity;BMP_temperature;BMP_pressure;BME280_temperature;BME280_humidity;BME280_pressure;Samples;Min_cycle;Max_cycle;Signal;HPM_P1;HPM_P2
2022/01/27 00:02:02;;;;;;;75.83;9.80;;;;;;;;;;4999529;28;20236;-48
2022/01/27 00:04:37;;;;;;;105.37;13.17;;;;;;;;;;5015691;28;20290;-48
2022/01/27 00:07:03;;;;;;;100.33;12.60;;;;;;;;;;5015540;28;20195;-48
2022/01/27 00:12:27;;;;;;;92.80;11.80;;;;;;;;;;4979193;28;20212;-49
2022/01/27 00:15:07;;;;;;;78.27;9.97;;;;;;;;;;5015472;28;20575;-48
2022/01/27 00:17:38;;;;;;;59.73;7.83;;;;;;;;;;5015220;28;20201;-49
2022/01/27 00:20:04;;;;;;;61.30;8.10;;;;;;;;;;5019533;28;20188;-48
2022/01/27 00:22:30;;;;;;;62.80;8.27;;;;;;;;;;5017163;28;20191;-49
2022/01/27 00:24:56;;;;;;;80.87;10.47;;;;;;;;;;5016728;28;20208;-48
2022/01/27 00:27:22;;;;;;;86.63;10.97;;;;;;;;;;5013955;28;20180;-49
2022/01/27 00:29:48;;;;;;;84.27;10.63;;;;;;;;;;5016518;28;20583;-48
2022/01/27 00:32:14;;;;;;;275.97;36.03;;;;;;;;;;5013330;28;20764;-48
2022/01/27 00:34:39;;;;;;;96.40;12.10;;;;;;;;;;5008071;28;20205;-48
2022/01/27 00:37:05;;;;;;;77.17;9.77;;;;;;;;;;5013227;28;20259;-48
2022/01/27 00:39:31;;;;;;;103.40;12.93;;;;;;;;;;5009489;28;20663;-49
2022/01/27 00:41:57;;;;;;;113.27;14.07;;;;;;;;;;5009250;28;20199;-49
2022/01/27 00:44:23;;;;;;;95.70;12.00;;;;;;;;;;5010749;28;20231;-48
2022/01/27 00:46:49;;;;;;;112.07;13.80;;;;;;;;;;5007952;28;20181;-48
2022/01/27 00:49:15;;;;;;;78.70;9.97;;;;;;;;;;5010348;28;20181;-49
2022/01/27 00:51:45;;;;;;;80.60;10.30;;;;;;;;;;5009967;28;20211;-49
2022/01/27 00:54:18;;;;;;;87.50;11.10;;;;;;;;;;5004752;28;20201;-49
2022/01/27 00:56:54;;;;;;;132.87;16.40;;;;;;;;;;5006984;28;20707;-49
2022/01/27 00:59:29;;;;;;;83.80;10.50;;;;;;;;;;5013963;28;20654;-48
2022/01/27 01:02:17;;;;;;;33.70;4.93;;;;;;;;;;5007384;28;20203;-48
2022/01/27 01:04:47;;;;;;;78.43;10.03;;;;;;;;;;5008402;28;20251;-49
2022/01/27 01:07:15;;;;;;;81.30;10.50;;;;;;;;;;5008750;28;20196;-48
2022/01/27 01:10:38;;;;;;;108.80;13.60;;;;;;;;;;5009508;28;20420;-48
2022/01/27 01:15:33;;;;;;;70.03;9.00;;;;;;;;;;5009303;28;20245;-48
2022/01/27 01:18:26;;;;;;;65.23;8.47;;;;;;;;;;5014955;28;20250;-48
2022/01/27 01:31:54;;;;;;;51.40;6.80;;;;;;;;;;5013939;28;20687;-49
2022/01/27 01:34:24;;;;;;;85.80;11.00;;;;;;;;;;5008399;28;20192;-49
2022/01/27 01:39:21;;;;;;;109.83;13.57;;;;;;;;;;5007097;28;20648;-48
2022/01/27 01:41:47;;;;;;;127.90;15.97;;;;;;;;;;5008258;28;20198;-49
2022/01/27 01:44:13;;;;;;;74.47;9.67;;;;;;;;;;5009816;28;20208;-48
2022/01/27 01:46:39;;;;;;;63.53;8.33;;;;;;;;;;5013521;28;20632;-48
2022/01/27 01:49:05;;;;;;;57.70;7.67;;;;;;;;;;5018302;28;20184;-48
2022/01/27 01:51:32;;;;;;;72.07;9.37;;;;;;;;;;5006897;28;20204;-49
2022/01/27 01:53:58;;;;;;;106.40;13.33;;;;;;;;;;5009469;28;20295;-48
2022/01/27 01:56:25;;;;;;;66.83;8.77;;;;;;;;;;5007250;28;20246;-48
2022/01/27 01:58:51;;;;;;;90.53;11.53;;;;;;;;;;5009194;28;20181;-48
2022/01/27 02:01:17;;;;;;;98.33;12.23;;;;;;;;;;5013774;28;20184;-48
2022/01/27 02:03:44;;;;;;;85.53;10.80;;;;;;;;;;5006494;28;20204;-48
2022/01/27 02:06:18;;;;;;;78.33;10.07;;;;;;;;;;5010681;28;20275;-48
2022/01/27 02:09:11;;;;;;;116.10;14.40;;;;;;;;;;5005973;28;20529;-49
2022/01/27 02:19:53;;;;;;;70.53;9.10;;;;;;;;;;5009439;28;20549;-49
2022/01/27 02:22:20;;;;;;;134.60;16.57;;;;;;;;;;5004489;28;20196;-49
2022/01/27 02:24:46;;;;;;;68.87;8.87;;;;;;;;;;5004534;28;20208;-49
2022/01/27 02:27:14;;;;;;;84.23;10.63;;;;;;;;;;5000618;28;20207;-49
2022/01/27 02:29:40;;;;;;;54.50;7.23;;;;;;;;;;5010462;28;20710;-48
2022/01/27 02:32:07;;;;;;;65.77;8.50;;;;;;;;;;5010993;28;20212;-49
2022/01/27 02:34:33;;;;;;;98.73;12.50;;;;;;;;;;5007784;28;20846;-48
2022/01/27 02:36:59;;;;;;;53.10;7.13;;;;;;;;;;5007716;28;20193;-48
2022/01/27 02:39:25;;;;;;;79.77;10.27;;;;;;;;;;5006085;28;20180;-48
2022/01/27 02:42:01;;;;;;;75.17;9.50;;;;;;;;;;5006020;28;20250;-49
2022/01/27 02:44:27;;;;;;;104.33;13.13;;;;;;;;;;5011290;28;20208;-49
2022/01/27 02:46:53;;;;;;;62.10;8.10;;;;;;;;;;5008126;28;20195;-48
2022/01/27 02:49:19;;;;;;;114.17;14.20;;;;;;;;;;5004970;28;20203;-49
2022/01/27 02:51:45;;;;;;;88.90;11.73;;;;;;;;;;5004954;28;20208;-48
2022/01/27 02:54:11;;;;;;;73.60;9.47;;;;;;;;;;5005077;28;20334;-48
2022/01/27 02:56:43;;;;;;;79.80;10.17;;;;;;;;;;5012809;28;20200;-49
2022/01/27 02:59:09;;;;;;;107.83;13.37;;;;;;;;;;5008779;28;20548;-48
2022/01/27 03:01:35;;;;;;;90.00;11.53;;;;;;;;;;5010469;28;20199;-48
2022/01/27 03:04:01;;;;;;;77.53;10.03;;;;;;;;;;5008157;28;20205;-48
2022/01/27 03:06:27;;;;;;;79.50;10.23;;;;;;;;;;5008833;28;20188;-49
2022/01/27 03:08:53;;;;;;;79.67;10.03;;;;;;;;;;5010507;28;20671;-48
2022/01/27 03:11:33;;;;;;;102.80;12.83;;;;;;;;;;5002600;28;20255;-49
2022/01/27 03:13:59;;;;;;;122.93;15.30;;;;;;;;;;5009020;28;20345;-48
2022/01/27 03:16:25;;;;;;;96.33;12.07;;;;;;;;;;5005410;28;20179;-48
2022/01/27 03:18:51;;;;;;;103.43;13.03;;;;;;;;;;5014036;28;20193;-48
2022/01/27 03:21:17;;;;;;;54.07;7.13;;;;;;;;;;5014169;28;20184;-48
2022/01/27 03:23:43;;;;;;;103.23;13.00;;;;;;;;;;5008422;28;20209;-48
2022/01/27 03:26:09;;;;;;;116.07;14.37;;;;;;;;;;5011467;28;20627;-48
2022/01/27 03:28:35;;;;;;;40.97;5.53;;;;;;;;;;5016059;28;20649;-48
2022/01/27 03:31:01;;;;;;;137.10;17.03;;;;;;;;;;5011425;28;20208;-48
2022/01/27 03:33:27;;;;;;;122.90;15.50;;;;;;;;;;5008759;28;20204;-48
2022/01/27 03:35:53;;;;;;;108.63;13.67;;;;;;;;;;5008951;28;20185;-48
2022/01/27 03:38:19;;;;;;;78.90;10.07;;;;;;;;;;5014005;28;20600;-49
2022/01/27 03:40:45;;;;;;;80.10;10.37;;;;;;;;;;5009623;28;20271;-49
2022/01/27 03:43:11;;;;;;;136.50;16.83;;;;;;;;;;5010646;28;20736;-48
2022/01/27 03:45:37;;;;;;;65.93;8.67;;;;;;;;;;5011371;28;20212;-48
2022/01/27 03:48:03;;;;;;;55.73;7.37;;;;;;;;;;5013736;28;20213;-48
2022/01/27 03:50:29;;;;;;;96.57;12.50;;;;;;;;;;5010536;28;20242;-49
2022/01/27 03:52:55;;;;;;;86.80;11.17;;;;;;;;;;5014430;28;20216;-48
2022/01/27 03:55:21;;;;;;;152.63;18.83;;;;;;;;;;5008219;28;20672;-49
2022/01/27 03:57:47;;;;;;;81.50;10.27;;;;;;;;;;5014113;28;20684;-49
2022/01/27 04:00:13;;;;;;;105.97;13.53;;;;;;;;;;5014224;28;20196;-49
2022/01/27 04:02:41;;;;;;;140.40;17.57;;;;;;;;;;5010611;28;20199;-49
2022/01/27 04:05:07;;;;;;;105.70;13.37;;;;;;;;;;5008161;28;20710;-49
2022/01/27 04:07:33;;;;;;;97.57;12.37;;;;;;;;;;5014189;28;21916;-49
2022/01/27 04:09:59;;;;;;;123.77;15.33;;;;;;;;;;5012193;28;20215;-49
2022/01/27 04:12:25;;;;;;;69.53;9.10;;;;;;;;;;5013639;28;20215;-49
2022/01/27 04:14:51;;;;;;;84.97;10.97;;;;;;;;;;4997341;28;20208;-49
2022/01/27 04:17:17;;;;;;;93.83;11.90;;;;;;;;;;5012949;28;20704;-49
2022/01/27 04:19:43;;;;;;;83.50;10.63;;;;;;;;;;5005083;28;20207;-49
2022/01/27 04:22:09;;;;;;;103.63;12.87;;;;;;;;;;5010160;28;20196;-48
2022/01/27 04:24:35;;;;;;;99.93;12.53;;;;;;;;;;5004403;28;20200;-49
2022/01/27 04:27:06;;;;;;;89.67;11.40;;;;;;;;;;5001680;28;20195;-49
2022/01/27 04:29:35;;;;;;;83.93;10.73;;;;;;;;;;5011363;28;20194;-49
2022/01/27 04:32:02;;;;;;;137.23;16.87;;;;;;;;;;5012363;28;20254;-49
2022/01/27 04:34:31;;;;;;;84.33;10.77;;;;;;;;;;5003871;28;20656;-49
2022/01/27 04:36:57;;;;;;;85.40;11.00;;;;;;;;;;5014753;28;20192;-50
2022/01/27 04:39:34;;;;;;;86.63;11.00;;;;;;;;;;5011564;28;20216;-49
2022/01/27 04:42:08;;;;;;;83.87;10.83;;;;;;;;;;5005880;28;20330;-49
2022/01/27 04:44:41;;;;;;;91.63;11.53;;;;;;;;;;5005486;28;20236;-49
2022/01/27 04:47:14;;;;;;;95.63;12.27;;;;;;;;;;5010719;28;20203;-49
2022/01/27 04:49:40;;;;;;;98.27;12.47;;;;;;;;;;5003859;28;20191;-49
2022/01/27 04:52:07;;;;;;;68.60;9.07;;;;;;;;;;5016191;28;20204;-49
2022/01/27 04:54:56;;;;;;;86.40;11.13;;;;;;;;;;5013797;28;20204;-49
2022/01/27 04:57:22;;;;;;;97.73;12.47;;;;;;;;;;5017018;28;20215;-49
2022/01/27 04:59:48;;;;;;;91.30;11.53;;;;;;;;;;5005531;28;20215;-49
2022/01/27 05:02:24;;;;;;;39.90;5.60;;;;;;;;;;5007832;28;24423;-49
2022/01/27 05:04:51;;;;;;;128.43;15.97;;;;;;;;;;5002195;28;20684;-49
2022/01/27 05:07:17;;;;;;;110.27;13.90;;;;;;;;;;5012049;28;20184;-49
2022/01/27 05:09:51;;;;;;;124.17;15.40;;;;;;;;;;5006223;28;20191;-49
2022/01/27 05:12:29;;;;;;;76.40;9.87;;;;;;;;;;5007249;28;20690;-49
2022/01/27 05:14:58;;;;;;;60.47;7.87;;;;;;;;;;5012069;28;20201;-49
2022/01/27 05:17:24;;;;;;;88.00;11.30;;;;;;;;;;5009717;28;20404;-48
2022/01/27 05:19:51;;;;;;;86.13;11.10;;;;;;;;;;5005234;28;20272;-49
2022/01/27 05:22:17;;;;;;;134.17;16.73;;;;;;;;;;5009845;28;20531;-49
2022/01/27 05:24:43;;;;;;;75.53;9.83;;;;;;;;;;5012617;28;20333;-49
2022/01/27 05:27:08;;;;;;;119.70;14.83;;;;;;;;;;5005860;28;20185;-49
2022/01/27 05:29:34;;;;;;;108.47;13.50;;;;;;;;;;5007708;28;20263;-49
2022/01/27 05:32:00;;;;;;;85.60;10.83;;;;;;;;;;5009421;28;20216;-49
2022/01/27 05:34:26;;;;;;;101.53;12.97;;;;;;;;;;5007173;28;20345;-49
2022/01/27 05:36:52;;;;;;;125.90;15.70;;;;;;;;;;5009036;28;20189;-49
2022/01/27 05:39:18;;;;;;;102.67;12.93;;;;;;;;;;5006711;28;20660;-49
2022/01/27 05:41:44;;;;;;;128.33;15.97;;;;;;;;;;5001052;28;20545;-49
2022/01/27 05:44:10;;;;;;;118.30;14.53;;;;;;;;;;5004839;28;20211;-49
2022/01/27 05:46:36;;;;;;;112.70;13.97;;;;;;;;;;5004306;28;20234;-49
2022/01/27 05:49:02;;;;;;;71.97;9.20;;;;;;;;;;5010609;28;20791;-49
2022/01/27 05:51:28;;;;;;;82.27;10.47;;;;;;;;;;5007874;28;20258;-49
2022/01/27 05:53:54;;;;;;;99.40;12.37;;;;;;;;;;5010277;28;20208;-49
2022/01/27 05:56:20;;;;;;;89.43;11.17;;;;;;;;;;5009494;28;20184;-49
2022/01/27 05:58:45;;;;;;;89.83;11.37;;;;;;;;;;5010504;28;20224;-49
2022/01/27 06:01:12;;;;;;;117.13;14.57;;;;;;;;;;5005121;28;20246;-49
2022/01/27 06:03:38;;;;;;;120.13;15.00;;;;;;;;;;5007639;28;20633;-49
2022/01/27 06:06:04;;;;;;;83.47;10.60;;;;;;;;;;5009247;28;20193;-49
2022/01/27 06:08:30;;;;;;;102.47;12.67;;;;;;;;;;5009123;28;20650;-49
2022/01/27 06:10:56;;;;;;;87.27;11.13;;;;;;;;;;5006453;28;20549;-49
2022/01/27 06:13:22;;;;;;;129.07;15.83;;;;;;;;;;5007708;28;20207;-49
2022/01/27 06:15:49;;;;;;;120.20;14.83;;;;;;;;;;5010172;28;20189;-49
2022/01/27 06:18:15;;;;;;;50.40;6.77;;;;;;;;;;5013436;28;20556;-49
2022/01/27 06:20:43;;;;;;;89.40;11.30;;;;;;;;;;5001065;28;20177;-49
2022/01/27 06:23:09;;;;;;;124.57;15.70;;;;;;;;;;5004848;28;20231;-49
2022/01/27 06:25:35;;;;;;;144.40;17.43;;;;;;;;;;5007404;28;20196;-49
2022/01/27 06:28:01;;;;;;;81.27;10.00;;;;;;;;;;5011519;28;20563;-49
2022/01/27 06:30:27;;;;;;;125.80;15.63;;;;;;;;;;5007735;28;20180;-49
2022/01/27 06:32:53;;;;;;;104.80;12.97;;;;;;;;;;5014121;28;20231;-48
2022/01/27 06:35:19;;;;;;;135.83;16.63;;;;;;;;;;5007745;28;20196;-49
2022/01/27 06:37:47;;;;;;;79.63;10.23;;;;;;;;;;5009878;28;20735;-49
2022/01/27 06:40:14;;;;;;;134.97;16.73;;;;;;;;;;5002579;28;20197;-49
2022/01/27 06:42:40;;;;;;;100.90;12.63;;;;;;;;;;5000097;28;20201;-48
2022/01/27 06:45:06;;;;;;;85.60;10.97;;;;;;;;;;5016804;28;20254;-48
2022/01/27 06:47:33;;;;;;;83.07;10.47;;;;;;;;;;5003454;28;20196;-48
2022/01/27 06:49:59;;;;;;;73.60;9.47;;;;;;;;;;5008379;28;20184;-48
2022/01/27 06:52:27;;;;;;;109.10;13.57;;;;;;;;;;5011242;28;20205;-48
2022/01/27 06:54:55;;;;;;;322.97;40.23;;;;;;;;;;5000368;28;20210;-48
2022/01/27 06:57:21;;;;;;;108.50;13.40;;;;;;;;;;4987438;28;20250;-48
2022/01/27 06:59:48;;;;;;;79.87;10.17;;;;;;;;;;5011984;28;20267;-48
2022/01/27 07:02:14;;;;;;;272.73;33.50;;;;;;;;;;4983495;28;20227;-48
2022/01/27 07:04:40;;;;;;;117.03;14.53;;;;;;;;;;4992630;28;20318;-48
2022/01/27 07:07:06;;;;;;;71.67;9.23;;;;;;;;;;5015023;28;20328;-48
2022/01/27 07:09:32;;;;;;;81.20;10.30;;;;;;;;;;5006310;28;20246;-48
2022/01/27 07:11:58;;;;;;;88.47;11.10;;;;;;;;;;4998384;28;20302;-48
2022/01/27 07:14:24;;;;;;;208.93;25.40;;;;;;;;;;5005344;28;20375;-49
2022/01/27 07:16:50;;;;;;;78.27;9.93;;;;;;;;;;5005237;28;20568;-48
2022/01/27 07:19:16;;;;;;;182.00;22.33;;;;;;;;;;5005541;28;20193;-48
2022/01/27 07:21:42;;;;;;;147.47;18.10;;;;;;;;;;4997161;28;20192;-48
2022/01/27 07:24:08;;;;;;;217.90;27.03;;;;;;;;;;4990516;28;20568;-48
2022/01/27 07:26:34;;;;;;;142.00;17.63;;;;;;;;;;4992870;28;20211;-48
2022/01/27 07:29:00;;;;;;;134.87;16.53;;;;;;;;;;5011986;28;20462;-48
2022/01/27 07:31:26;;;;;;;120.13;14.73;;;;;;;;;;5008666;28;20254;-49
2022/01/27 07:33:53;;;;;;;152.07;18.40;;;;;;;;;;5001958;28;20507;-49
2022/01/27 07:36:19;;;;;;;164.50;19.97;;;;;;;;;;4978152;28;21394;-48
2022/01/27 07:38:47;;;;;;;103.57;12.67;;;;;;;;;;5011425;28;20188;-49
2022/01/27 07:41:13;;;;;;;165.90;20.07;;;;;;;;;;5005743;28;20278;-49
2022/01/27 07:43:40;;;;;;;129.40;15.63;;;;;;;;;;5006148;28;20212;-49
2022/01/27 07:46:06;;;;;;;141.53;17.50;;;;;;;;;;5006729;28;20180;-49
2022/01/27 07:48:32;;;;;;;67.50;8.57;;;;;;;;;;5018609;28;20290;-49
2022/01/27 07:50:58;;;;;;;105.70;13.20;;;;;;;;;;5007199;28;20274;-49
2022/01/27 07:53:24;;;;;;;151.00;18.27;;;;;;;;;;5013846;28;20818;-49
2022/01/27 07:55:50;;;;;;;185.27;21.80;;;;;;;;;;5006417;28;20463;-49
2022/01/27 07:58:15;;;;;;;165.47;20.17;;;;;;;;;;5004967;28;20680;-49
2022/01/27 08:00:41;;;;;;;208.20;24.97;;;;;;;;;;5002950;28;20196;-49
2022/01/27 08:03:07;;;;;;;247.67;30.23;;;;;;;;;;4987877;28;20700;-48
2022/01/27 08:05:34;;;;;;;145.40;17.87;;;;;;;;;;4994559;28;20587;-48
2022/01/27 08:08:00;;;;;;;219.97;26.57;;;;;;;;;;4990894;28;20188;-48
2022/01/27 08:10:26;;;;;;;112.07;14.13;;;;;;;;;;5006082;28;20189;-48
2022/01/27 08:12:52;;;;;;;120.47;15.10;;;;;;;;;;5000102;28;20610;-48
2022/01/27 08:15:19;;;;;;;117.43;14.53;;;;;;;;;;5001324;28;20183;-48
2022/01/27 08:17:46;;;;;;;135.20;17.03;;;;;;;;;;5003645;28;20230;-48
2022/01/27 08:20:12;;;;;;;259.57;32.97;;;;;;;;;;4995629;28;20351;-48
2022/01/27 08:22:39;;;;;;;246.87;30.77;;;;;;;;;;4965942;28;20196;-48
2022/01/27 08:25:05;;;;;;;128.77;16.30;;;;;;;;;;4981034;28;20212;-48
2022/01/27 08:27:32;;;;;;;136.40;18.40;;;;;;;;;;5000376;28;21136;-48
2022/01/27 08:30:04;;;;;;;181.50;22.67;;;;;;;;;;4997604;28;20216;-48
2022/01/27 08:32:45;;;;;;;136.20;16.70;;;;;;;;;;5008632;28;20244;-48
2022/01/27 08:35:12;;;;;;;129.57;16.07;;;;;;;;;;4995218;28;20203;-48
2022/01/27 08:37:37;;;;;;;207.10;26.53;;;;;;;;;;4991722;28;20199;-48
2022/01/27 08:40:04;;;;;;;198.00;24.17;;;;;;;;;;5003155;28;20181;-48
2022/01/27 08:42:30;;;;;;;123.93;15.67;;;;;;;;;;5007399;28;20199;-48
2022/01/27 08:44:56;;;;;;;185.70;22.70;;;;;;;;;;5000278;28;20217;-48
2022/01/27 08:47:22;;;;;;;159.83;19.70;;;;;;;;;;4998213;28;20588;-48
2022/01/27 08:49:48;;;;;;;92.27;11.80;;;;;;;;;;4987296;28;20688;-48
2022/01/27 08:52:14;;;;;;;200.47;24.17;;;;;;;;;;4987845;28;20224;-48
2022/01/27 08:54:41;;;;;;;211.13;26.37;;;;;;;;;;4996880;28;20347;-48
2022/01/27 08:57:07;;;;;;;106.87;13.53;;;;;;;;;;4978641;28;20280;-48
2022/01/27 08:59:33;;;;;;;221.87;26.80;;;;;;;;;;5002068;28;20189;-47
2022/01/27 09:01:59;;;;;;;184.67;22.37;;;;;;;;;;4990459;28;20533;-48
2022/01/27 09:04:25;;;;;;;235.40;28.57;;;;;;;;;;4983161;28;20208;-48
2022/01/27 09:06:51;;;;;;;243.43;31.27;;;;;;;;;;4973251;28;20195;-48
2022/01/27 09:09:17;;;;;;;303.33;36.70;;;;;;;;;;4982760;28;20652;-48
2022/01/27 09:11:46;;;;;;;141.40;17.20;;;;;;;;;;4983624;28;20235;-48
2022/01/27 09:14:13;;;;;;;243.63;30.17;;;;;;;;;;4985097;28;20681;-48
2022/01/27 09:16:39;;;;;;;283.17;36.20;;;;;;;;;;4977413;28;20192;-48
2022/01/27 09:19:05;;;;;;;100.77;17.17;;;;;;;;;;5031255;23;20235;-44
2022/01/27 09:21:42;;;;;;;115.43;19.17;;;;;;;;;;5038534;28;20172;-51
2022/01/27 09:24:13;;;;;;;236.30;35.90;;;;;;;;;;4982376;28;20550;-51
2022/01/27 09:26:43;;;;;;;131.47;21.10;;;;;;;;;;5005451;28;20208;-51
2022/01/27 09:29:09;;;;;;;122.97;19.63;;;;;;;;;;5009051;28;20700;-52
2022/01/27 09:31:36;;;;;;;155.87;25.60;;;;;;;;;;5013479;28;20208;-51
2022/01/27 09:34:02;;;;;;;211.73;32.40;;;;;;;;;;5014263;28;20328;-51
2022/01/27 09:36:28;;;;;;;125.47;20.93;;;;;;;;;;5014446;28;20188;-51
2022/01/27 09:38:54;;;;;;;228.73;35.97;;;;;;;;;;5005919;28;20194;-51
2022/01/27 09:41:22;;;;;;;221.17;35.03;;;;;;;;;;5011739;28;20195;-51
2022/01/27 09:43:48;;;;;;;205.60;32.43;;;;;;;;;;5004276;28;20265;-51
2022/01/27 09:46:17;;;;;;;129.57;21.83;;;;;;;;;;5009985;28;20194;-51
2022/01/27 09:48:47;;;;;;;237.63;36.77;;;;;;;;;;5005219;28;20294;-51
2022/01/27 09:53:45;;;;;;;236.53;35.97;;;;;;;;;;5009254;28;20306;-51
2022/01/27 09:56:12;;;;;;;198.23;29.90;;;;;;;;;;4999819;28;20210;-51
2022/01/27 09:58:38;;;;;;;124.13;20.00;;;;;;;;;;5009706;28;20184;-51
2022/01/27 10:01:04;;;;;;;211.33;32.53;;;;;;;;;;5005020;28;20223;-52
2022/01/27 10:03:31;;;;;;;140.73;22.40;;;;;;;;;;5018475;28;20357;-52
2022/01/27 10:06:12;;;;;;;112.00;18.20;;;;;;;;;;5011844;28;20645;-51
2022/01/27 10:08:40;;;;;;;116.97;18.43;;;;;;;;;;5006728;28;20648;-51
2022/01/27 10:11:14;;;;;;;158.60;25.33;;;;;;;;;;5009088;28;20184;-52
2022/01/27 10:13:41;;;;;;;127.47;20.93;;;;;;;;;;5007974;28;20207;-51
2022/01/27 10:16:07;;;;;;;215.90;34.80;;;;;;;;;;5020346;28;20176;-52
2022/01/27 10:18:37;;;;;;;164.63;25.70;;;;;;;;;;5010082;28;20253;-52
2022/01/27 10:21:04;;;;;;;104.40;18.13;;;;;;;;;;5009427;28;20548;-52
2022/01/27 10:23:33;;;;;;;122.83;19.93;;;;;;;;;;5005463;28;20204;-52
2022/01/27 10:26:12;;;;;;;136.27;22.47;;;;;;;;;;5004741;28;20651;-51
2022/01/27 10:28:49;;;;;;;231.73;35.33;;;;;;;;;;5009776;28;20236;-52
2022/01/27 10:31:19;;;;;;;167.87;25.57;;;;;;;;;;5008958;28;24213;-52
2022/01/27 10:33:47;;;;;;;110.00;18.63;;;;;;;;;;5010877;28;20200;-52
2022/01/27 10:36:14;;;;;;;101.77;17.00;;;;;;;;;;5009346;28;20183;-51
2022/01/27 10:38:40;;;;;;;236.10;36.10;;;;;;;;;;4997802;28;20188;-51
2022/01/27 10:41:07;;;;;;;163.37;25.73;;;;;;;;;;4990555;28;20203;-51
2022/01/27 10:43:34;;;;;;;159.80;24.67;;;;;;;;;;4992235;28;20270;-52
2022/01/27 10:48:50;;;;;;;140.40;22.27;;;;;;;;;;5019275;28;20191;-53
2022/01/27 10:51:23;;;;;;;150.23;23.00;;;;;;;;;;5018371;28;20259;-53
2022/01/27 10:54:05;;;;;;;119.53;20.00;;;;;;;;;;5019352;28;20266;-52
2022/01/27 10:56:33;;;;;;;164.53;26.13;;;;;;;;;;5005104;28;20739;-53
2022/01/27 10:59:01;;;;;;;194.50;30.97;;;;;;;;;;5015414;28;20267;-52
2022/01/27 11:01:37;;;;;;;205.30;32.03;;;;;;;;;;5015857;28;20274;-52
2022/01/27 11:04:05;;;;;;;227.63;33.53;;;;;;;;;;5010637;28;22792;-53
2022/01/27 11:06:31;;;;;;;157.53;25.10;;;;;;;;;;5016292;28;20199;-52
2022/01/27 11:08:59;;;;;;;159.57;24.20;;;;;;;;;;5016728;28;20180;-52
2022/01/27 11:11:27;;;;;;;120.20;19.87;;;;;;;;;;5020101;28;20204;-52
2022/01/27 11:13:53;;;;;;;174.87;26.97;;;;;;;;;;5025955;28;20480;-52
2022/01/27 11:16:24;;;;;;;123.13;20.97;;;;;;;;;;5011334;28;20212;-52
2022/01/27 11:18:51;;;;;;;168.37;27.60;;;;;;;;;;5016464;28;20206;-52
2022/01/27 11:21:30;;;;;;;117.67;19.47;;;;;;;;;;5011740;28;20180;-52
2022/01/27 11:26:26;;;;;;;83.63;15.50;;;;;;;;;;5019305;28;20587;-52
2022/01/27 11:28:53;;;;;;;126.20;20.87;;;;;;;;;;5013512;28;21955;-53
2022/01/27 11:31:19;;;;;;;130.97;21.23;;;;;;;;;;5014523;28;20668;-52
2022/01/27 11:33:57;;;;;;;175.67;26.43;;;;;;;;;;5009537;28;20218;-53
2022/01/27 11:36:24;;;;;;;127.17;19.47;;;;;;;;;;5016446;28;20200;-52
2022/01/27 11:38:50;;;;;;;156.27;24.17;;;;;;;;;;5025203;28;20187;-51
2022/01/27 11:41:35;;;;;;;224.73;31.70;;;;;;;;;;5013538;28;20614;-52
2022/01/27 11:44:20;;;;;;;115.43;17.83;;;;;;;;;;5026397;28;20564;-52
2022/01/27 11:47:05;;;;;;;132.03;20.57;;;;;;;;;;5019282;28;20291;-52
2022/01/27 11:49:55;;;;;;;110.10;17.93;;;;;;;;;;5013455;28;21924;-52
2022/01/27 11:52:22;;;;;;;205.10;30.03;;;;;;;;;;5008538;28;20398;-51
2022/01/27 11:54:48;;;;;;;120.33;19.73;;;;;;;;;;5019959;28;20207;-52
2022/01/27 11:57:33;;;;;;;120.13;19.77;;;;;;;;;;5016995;28;21483;-52
2022/01/27 12:00:09;;;;;;;202.07;30.53;;;;;;;;;;5013519;28;20268;-52
2022/01/27 12:03:12;;;;;;;134.10;20.80;;;;;;;;;;5016896;28;20294;-51
2022/01/27 12:05:39;;;;;;;130.10;19.30;;;;;;;;;;4967191;28;20950;-52
2022/01/27 12:08:15;;;;;;;97.67;16.30;;;;;;;;;;5016293;28;20519;-51
2022/01/27 12:10:57;;;;;;;180.13;27.03;;;;;;;;;;5023401;28;20191;-52
2022/01/27 12:13:32;;;;;;;114.33;19.60;;;;;;;;;;5033825;28;20305;-52
2022/01/27 12:18:59;;;;;;;234.37;35.47;;;;;;;;;;5022440;28;20215;-51
2022/01/27 12:21:28;;;;;;;135.13;21.40;;;;;;;;;;5011407;28;20203;-52
2022/01/27 12:24:21;;;;;;;97.90;17.67;;;;;;;;;;5019968;28;20609;-52
2022/01/27 12:26:52;;;;;;;145.03;22.47;;;;;;;;;;5014319;28;20218;-52
2022/01/27 12:29:24;;;;;;;156.13;24.33;;;;;;;;;;5020555;28;20179;-52
2022/01/27 12:31:51;;;;;;;173.00;26.30;;;;;;;;;;5031194;28;20258;-51
2022/01/27 12:34:17;;;;;;;133.83;21.10;;;;;;;;;;5022108;28;20231;-52
2022/01/27 12:36:53;;;;;;;161.10;24.50;;;;;;;;;;5017816;28;20266;-52
2022/01/27 12:39:23;;;;;;;197.30;30.03;;;;;;;;;;5012416;28;20304;-52
2022/01/27 12:41:54;;;;;;;174.43;26.70;;;;;;;;;;5005742;28;20247;-52
2022/01/27 12:44:20;;;;;;;118.10;19.33;;;;;;;;;;5012551;28;20216;-52
2022/01/27 12:47:05;;;;;;;142.63;23.33;;;;;;;;;;5019028;28;20271;-52
2022/01/27 12:49:44;;;;;;;121.90;20.10;;;;;;;;;;5015437;28;20191;-52
2022/01/27 12:52:12;;;;;;;165.07;24.60;;;;;;;;;;5019651;28;20353;-52
2022/01/27 12:54:39;;;;;;;142.00;22.00;;;;;;;;;;5023483;28;20203;-52
2022/01/27 12:57:06;;;;;;;131.90;20.70;;;;;;;;;;5024962;28;20180;-52
2022/01/27 12:59:37;;;;;;;167.93;25.60;;;;;;;;;;5019055;28;20183;-51
2022/01/27 13:02:07;;;;;;;111.43;18.40;;;;;;;;;;5027155;28;20462;-52
2022/01/27 13:04:34;;;;;;;113.27;18.63;;;;;;;;;;5029739;28;20246;-51
2022/01/27 13:07:00;;;;;;;163.23;25.03;;;;;;;;;;5019327;28;20188;-53
2022/01/27 13:09:27;;;;;;;190.80;29.03;;;;;;;;;;5010752;28;20222;-52
2022/01/27 13:11:54;;;;;;;116.00;19.40;;;;;;;;;;5013124;28;20291;-52
2022/01/27 13:14:21;;;;;;;175.03;26.63;;;;;;;;;;5009592;28;20219;-52
2022/01/27 13:16:52;;;;;;;145.13;23.00;;;;;;;;;;5016553;28;20264;-52
2022/01/27 13:19:29;;;;;;;84.37;15.37;;;;;;;;;;5014825;28;20203;-52
2022/01/27 13:22:03;;;;;;;177.60;27.03;;;;;;;;;;5010327;28;20568;-52
2022/01/27 13:24:33;;;;;;;106.97;16.53;;;;;;;;;;5027510;28;20252;-52
2022/01/27 13:27:05;;;;;;;152.00;23.30;;;;;;;;;;5018710;28;20241;-51
2022/01/27 13:29:39;;;;;;;182.60;27.00;;;;;;;;;;5017345;28;21214;-53
2022/01/27 13:32:05;;;;;;;104.30;16.00;;;;;;;;;;5026465;28;20226;-52
2022/01/27 13:34:32;;;;;;;192.27;28.50;;;;;;;;;;5019323;28;20211;-52
2022/01/27 13:36:59;;;;;;;173.33;26.33;;;;;;;;;;5007031;28;20184;-52
2022/01/27 13:41:16;;;;;;;111.83;18.13;;;;;;;;;;5021653;28;20215;-52
2022/01/27 13:42:23;;;;;;;137.73;21.50;;;;;;;;;;5016390;28;20274;-52
2022/01/27 13:44:57;;;;;;;123.87;19.53;;;;;;;;;;5018462;28;20214;-52
2022/01/27 13:47:26;;;;;;;108.93;17.23;;;;;;;;;;5025060;28;20348;-52
2022/01/27 13:49:52;;;;;;;114.27;17.27;;;;;;;;;;5019436;28;20321;-52
2022/01/27 13:52:19;;;;;;;183.13;27.10;;;;;;;;;;5015758;28;20899;-52
2022/01/27 13:54:49;;;;;;;153.30;23.93;;;;;;;;;;5017286;28;20312;-53
2022/01/27 13:57:32;;;;;;;108.60;18.37;;;;;;;;;;5030695;28;20190;-52
2022/01/27 14:00:12;;;;;;;203.63;30.40;;;;;;;;;;5024939;28;20349;-52
2022/01/27 14:02:40;;;;;;;115.90;20.00;;;;;;;;;;5018290;28;22259;-51
2022/01/27 14:05:14;;;;;;;139.37;21.97;;;;;;;;;;5020189;28;20595;-52
2022/01/27 14:07:41;;;;;;;76.73;13.67;;;;;;;;;;5022729;28;20191;-51
2022/01/27 14:10:17;;;;;;;152.63;23.93;;;;;;;;;;5024360;28;20556;-52
2022/01/27 14:12:44;;;;;;;92.43;15.80;;;;;;;;;;5031048;28;20211;-52
2022/01/27 14:15:25;;;;;;;145.47;22.70;;;;;;;;;;5021430;28;20193;-52
2022/01/27 14:17:56;;;;;;;97.70;16.77;;;;;;;;;;5022614;28;20184;-52
2022/01/27 14:20:22;;;;;;;148.70;23.90;;;;;;;;;;5006318;28;20267;-52
2022/01/27 14:23:01;;;;;;;99.50;17.47;;;;;;;;;;5022502;28;20267;-52
2022/01/27 14:25:36;;;;;;;147.50;23.03;;;;;;;;;;5021290;28;20275;-53
2022/01/27 14:28:02;;;;;;;95.23;16.37;;;;;;;;;;5025051;28;20830;-52
2022/01/27 14:30:28;;;;;;;135.63;22.03;;;;;;;;;;5026981;28;20184;-52
2022/01/27 14:32:53;;;;;;;136.10;22.50;;;;;;;;;;5027514;28;20223;-52
2022/01/27 14:35:20;;;;;;;139.30;22.77;;;;;;;;;;5015007;28;20253;-51
2022/01/27 14:37:46;;;;;;;152.60;23.47;;;;;;;;;;5018521;28;20183;-52
2022/01/27 14:40:13;;;;;;;165.70;25.13;;;;;;;;;;5019340;28;20241;-52
2022/01/27 14:42:40;;;;;;;84.13;15.23;;;;;;;;;;5018147;28;20192;-52
2022/01/27 14:45:08;;;;;;;106.27;18.07;;;;;;;;;;5014155;28;20602;-52
2022/01/27 14:47:40;;;;;;;149.47;23.57;;;;;;;;;;5016485;28;20192;-51
2022/01/27 14:50:06;;;;;;;158.60;24.80;;;;;;;;;;5017156;28;20594;-52
2022/01/27 14:52:33;;;;;;;122.60;19.90;;;;;;;;;;5023186;28;20269;-52
2022/01/27 14:54:59;;;;;;;121.53;20.43;;;;;;;;;;5023078;28;20215;-52
2022/01/27 14:57:25;;;;;;;131.50;21.60;;;;;;;;;;5006480;28;20350;-52
2022/01/27 14:59:51;;;;;;;193.60;29.23;;;;;;;;;;5018377;28;20189;-52